KCJR

Culpeper Regional Airport

Culpeper, Virginia, USA
METAR KCJR 171635Z AUTO 22004KT 10SM CLR 31/22 A3005 RMK AO2 T03120223
Observed Flight Rules
Aug-17 @ 16:35 UTC (18 minutes ago) Visual Flight Rules
Wind Visibility Clouds
220° at 4 knots 10 miles
  • Clear skies
Temperatures Readings
Current 31°C / 88°F
Dewpoint 22°C / 72°F
Humidity 59%
Altimeter 30.05" Hg
Pressure 1018 hPa
Elevation 97
METAR KCJR 171635Z AUTO 22004KT 10SM CLR 31/22 A3005 RMK AO2 T03120223
Observed Flight Rules
Aug-17 @ 16:35 UTC
(18 minutes ago)
VFR
Wind Visibility
220° at 4 knots 10 miles
Clouds
  • Clear skies
Temperature Dewpoint
31°C / 88°F 22°C / 72°F
Humidity Altimeter Pressure
59% 30.05" Hg 1018 hPa